Latest Weather Observations for Young

IDN60801

Issued at 6:34 pm EST Wednesday 29 June 2016 (issued every 30 minutes, with the page automatically refreshed every 10 minutes)

About weather observations | Map of weather stations | Latest weather observations for NSW | Other Formats
Station Details ID: 073138 Name: YOUNG AIRPORT Lat: -34.25 Lon: 148.25 Height: 379.6 m
Data from the previous 72 hours. | See also: Recent months at Young
Date/Time
EST
Temp
°C
App
Temp
°C
Dew
Point
°C
Rel
Hum
%
Delta-T
°C
Wind Press
QNH
hPa
Press
MSL
hPa
Rain since
9am
mm
Dir  Spd
km/h
Gust
km/h
Spd
kts
Gust
kts
29/06:30pm 4.3 1.5 3.4 94 0.4 WSW 7 9 4 5 1025.1 1025.7 0.0
29/06:00pm 5.9 3.4 4.9 93 0.4 S 7 9 4 5 1025.0 1025.6 0.0
29/05:30pm 6.4 5.1 4.2 86 1.0 CALM 0 0 0 0 1025.1 1025.7 0.0
29/05:00pm 9.2 8.2 5.6 78 1.7 CALM 0 0 0 0 1025.3 1025.9 0.0
29/04:30pm 11.4 9.3 5.9 69 2.6 S 6 7 3 4 1025.4 1026.1 0.0
29/04:00pm 12.1 9.5 5.9 66 3.0 SSW 9 11 5 6 1025.3 1025.9 0.0
29/03:30pm 12.5 9.9 6.1 65 3.1 SSW 9 19 5 10 1025.4 1026.1 0.0
29/03:00pm 12.5 9.2 6.3 66 3.0 S 13 17 7 9 1025.4 1026.1 0.0
29/02:30pm 12.1 8.6 5.5 64 3.1 S 13 19 7 10 1025.5 1026.2 0.0
29/02:00pm 12.3 8.5 5.7 64 3.1 S 15 20 8 11 1025.9 1026.5 0.0
29/01:30pm 12.3 8.9 6.1 66 3.0 S 13 19 7 10 1026.2 1026.8 0.0
29/01:00pm 11.8 9.4 7.1 73 2.3 S 9 17 5 9 1026.7 1027.3 0.0
29/12:30pm 11.0 9.3 7.5 79 1.7 ESE 6 11 3 6 1027.2 1027.8 0.0
29/12:00pm 9.8 7.9 6.9 82 1.4 E 6 9 3 5 1027.7 1028.4 0.0
29/11:30am 9.1 7.4 7.7 91 0.7 N 6 7 3 4 1028.3 1029.0 0.0
29/11:00am 7.3 4.6 7.2 99 0.0 ESE 11 13 6 7 1028.7 1029.3 0.0
29/10:30am 7.4 5.4 7.3 99 0.0 NNE 7 11 4 6 1029.0 1029.6 0.0
29/10:00am 5.6 2.9 5.5 99 0.0 NNE 9 11 5 6 1029.2 1029.8 0.0
29/09:30am 4.5 3.3 4.4 99 0.0 CALM 0 0 0 0 1029.0 1029.6 0.0
29/09:00am 2.9 0.2 2.8 99 0.0 S 6 7 3 4 1028.9 1029.5 0.2
29/08:30am 2.1 -0.9 2.0 99 0.0 SSE 7 9 4 5 1029.0 1029.6 0.2
29/08:00am 1.8 -1.2 1.7 99 0.0 SSW 7 7 4 4 1029.1 1029.7 0.2
29/07:30am 1.5 -1.4 1.4 99 0.0 SSE 6 9 3 5 1028.8 1029.4 0.2
29/07:00am 1.9 0.2 1.8 99 0.0 CALM 0 6 0 3 1028.6 1029.2 0.2
29/06:30am 2.0 0.3 1.9 99 0.0 CALM 0 0 0 0 1028.2 1028.9 0.2
29/06:00am 2.3 -0.5 2.2 99 0.0 SSW 6 7 3 4 1028.0 1028.7 0.2
29/05:30am 1.7 -1.4 1.6 99 0.0 WSW 7 9 4 5 1027.9 1028.6 0.2
29/05:00am 1.2 -1.8 1.1 99 0.0 S 6 7 3 4 1027.7 1028.4 0.2
29/04:30am 1.4 -0.4 1.3 99 0.0 CALM 0 0 0 0 1027.7 1028.4 0.2
29/04:00am 2.3 0.7 2.2 99 0.0 CALM 0 0 0 0 1027.7 1028.4 0.2
29/03:30am 2.5 0.9 2.4 99 0.0 CALM 0 0 0 0 1027.8 1028.5 0.2
29/03:00am 2.4 -0.4 2.3 99 0.0 SW 6 7 3 4 1027.7 1028.4 0.2
29/02:30am 2.8 0.9 2.7 99 0.0 SE 2 6 1 3 1027.8 1028.5 0.2
29/02:00am 2.7 -0.2 2.6 99 0.0 SW 7 11 4 6 1027.8 1028.5 0.2
29/01:30am 2.4 0.8 2.3 99 0.0 CALM 0 0 0 0 1027.9 1028.6 0.2
29/01:00am 2.6 1.0 2.3 98 0.1 CALM 0 0 0 0 1028.0 1028.7 0.2
29/12:30am 2.8 0.0 2.2 96 0.2 NNW 6 6 3 3 1028.1 1028.8 0.2
29/12:00am 3.9 1.1 3.2 95 0.3 WNW 7 9 4 5 1028.2 1028.9 0.2
 
Date/Time
EST
Temp
°C
App
Temp
°C
Dew
Point
°C
Rel
Hum
%
Delta-T
°C
Wind Press
QNH
hPa
Press
MSL
hPa
Rain since
9am
mm
Dir  Spd
km/h
Gust
km/h
Spd
kts
Gust
kts
28/11:30pm 5.7 4.5 4.7 93 0.4 CALM 0 0 0 0 1028.4 1029.1 0.2
28/11:00pm 6.8 5.4 5.6 92 0.5 S 2 6 1 3 1028.7 1029.3 0.2
28/10:30pm 7.8 5.6 6.1 89 0.8 SSW 7 9 4 5 1028.7 1029.3 0.2
28/10:00pm 8.1 6.4 6.1 87 0.9 SSW 4 9 2 5 1028.7 1029.3 0.2
28/09:30pm 8.2 6.1 6.0 86 1.0 WSW 6 9 3 5 1028.6 1029.2 0.2
28/09:00pm 8.2 5.9 5.8 85 1.1 WSW 7 11 4 6 1028.3 1029.0 0.2
28/08:30pm 8.3 7.3 5.6 83 1.2 CALM 0 0 0 0 1028.2 1028.9 0.2
28/08:00pm 8.6 5.9 5.7 82 1.3 WSW 9 13 5 7 1028.2 1028.9 0.2
28/07:30pm 8.7 5.6 5.6 81 1.4 SW 11 17 6 9 1028.1 1028.8 0.2
28/07:00pm 8.7 6.0 5.4 80 1.5 SW 9 13 5 7 1027.7 1028.4 0.2
28/06:30pm 8.9 5.8 5.5 79 1.6 SW 11 15 6 8 1027.5 1028.1 0.2
28/06:00pm 8.9 5.4 5.3 78 1.6 SW 13 15 7 8 1027.3 1027.9 0.2
28/05:30pm 9.0 6.2 5.2 77 1.7 WSW 9 13 5 7 1026.9 1027.5 0.2
28/05:00pm 9.1 5.5 4.9 75 1.9 SW 13 17 7 9 1026.7 1027.3 0.2
28/04:30pm 9.5 5.1 4.5 71 2.3 WSW 17 24 9 13 1026.4 1027.0 0.2
28/04:00pm 10.1 6.0 4.5 68 2.5 SW 15 20 8 11 1026.3 1026.9 0.2
28/03:30pm 9.8 5.7 4.4 69 2.5 SW 15 22 8 12 1026.1 1026.7 0.2
28/03:00pm 11.1 6.8 5.2 67 2.7 SW 17 26 9 14 1025.9 1026.5 0.2
28/02:30pm 11.3 7.3 4.7 64 3.1 SW 15 20 8 11 1025.5 1026.2 0.2
28/02:00pm 10.8 5.8 4.5 65 2.9 SW 20 28 11 15 1025.4 1026.1 0.2
28/01:30pm 11.2 6.5 5.1 66 2.8 SW 19 26 10 14 1025.4 1026.1 0.0
28/01:00pm 10.7 5.9 4.6 66 2.8 SW 19 32 10 17 1025.5 1026.2 0.0
28/12:30pm 10.5 6.2 5.3 70 2.4 SW 17 22 9 12 1025.5 1026.2 0.0
28/12:00pm 10.3 6.5 5.7 73 2.1 SW 15 24 8 13 1025.6 1026.3 0.0
28/11:30am 9.8 5.5 5.4 74 2.0 WSW 17 26 9 14 1026.0 1026.6 0.0
28/11:00am 9.5 5.5 4.7 72 2.2 SW 15 20 8 11 1026.3 1026.9 0.0
28/10:30am 9.4 5.8 5.2 75 1.9 SW 13 19 7 10 1026.1 1026.7 0.0
28/10:00am 8.6 5.4 5.0 78 1.6 SW 11 15 6 8 1026.0 1026.6 0.0
28/09:30am 8.3 5.3 5.8 84 1.2 WSW 11 15 6 8 1025.9 1026.5 0.0
28/09:00am 6.7 3.9 5.3 91 0.6 WSW 9 13 5 7 1025.5 1026.2 0.0
28/08:30am 6.4 4.6 5.2 92 0.5 W 4 9 2 5 1025.2 1025.8 0.0
28/08:00am 6.1 5.0 4.9 92 0.5 CALM 0 0 0 0 1024.9 1025.5 0.0
28/07:30am 6.0 4.8 4.8 92 0.5 CALM 0 6 0 3 1024.6 1025.2 0.0
28/07:00am 6.0 3.7 5.0 93 0.4 WNW 6 7 3 4 1024.3 1024.9 0.0
28/06:30am 6.0 4.9 5.0 93 0.4 CALM 0 0 0 0 1023.8 1024.4 0.0
28/06:00am 6.0 4.5 5.0 93 0.4 WSW 2 6 1 3 1023.4 1024.0 0.0
28/05:30am 6.1 3.8 4.9 92 0.5 W 6 9 3 5 1022.9 1023.5 0.0
28/05:00am 6.1 3.6 4.9 92 0.5 WSW 7 9 4 5 1022.9 1023.5 0.0
28/04:30am 6.1 3.2 4.7 91 0.6 SW 9 11 5 6 1022.6 1023.2 0.0
28/04:00am 6.2 3.3 4.8 91 0.6 WSW 9 13 5 7 1022.5 1023.1 0.0
28/03:30am 5.9 4.0 4.7 92 0.5 SSW 4 6 2 3 1022.6 1023.2 0.0
28/03:00am 6.0 3.7 4.6 91 0.6 SSW 6 9 3 5 1022.5 1023.1 0.0
28/02:30am 6.1 3.6 4.6 90 0.7 SW 7 11 4 6 1022.5 1023.1 0.0
28/02:00am 6.2 3.3 4.5 89 0.7 SW 9 13 5 7 1022.4 1023.0 0.0
28/01:30am 6.2 3.3 4.5 89 0.7 SW 9 13 5 7 1022.2 1022.8 0.0
28/01:00am 6.2 3.3 4.4 88 0.8 SW 9 13 5 7 1022.0 1022.6 0.0
28/12:30am 6.2 3.3 4.5 89 0.7 WSW 9 13 5 7 1021.9 1022.5 0.0
28/12:00am 6.1 3.2 4.4 89 0.7 SW 9 15 5 8 1021.8 1022.4 0.0
 
Date/Time
EST
Temp
°C
App
Temp
°C
Dew
Point
°C
Rel
Hum
%
Delta-T
°C
Wind Press
QNH
hPa
Press
MSL
hPa
Rain since
9am
mm
Dir  Spd
km/h
Gust
km/h
Spd
kts
Gust
kts
27/11:30pm 5.9 3.5 4.2 89 0.7 SW 6 7 3 4 1021.7 1022.3 0.0
27/11:00pm 5.9 3.5 4.1 88 0.8 W 6 9 3 5 1021.4 1022.0 0.0
27/10:30pm 6.2 3.8 4.2 87 0.9 WSW 6 7 3 4 1021.4 1022.0 0.0
27/10:00pm 6.2 3.8 4.2 87 0.9 SW 6 7 3 4 1021.2 1021.8 0.0
27/09:30pm 6.2 3.6 4.0 86 1.0 WSW 7 11 4 6 1021.2 1021.8 0.0
27/09:00pm 6.2 3.6 4.0 86 1.0 WSW 7 11 4 6 1021.1 1021.7 0.0
27/08:30pm 6.2 4.1 3.9 85 1.0 WSW 4 7 2 4 1021.0 1021.6 0.0
27/08:00pm 6.2 3.5 3.7 84 1.1 WSW 7 9 4 5 1020.8 1021.3 0.0
27/07:30pm 6.1 3.5 3.3 82 1.2 WSW 6 9 3 5 1020.7 1021.2 0.0
27/07:00pm 6.1 3.5 3.3 82 1.2 W 6 9 3 5 1020.4 1020.9 0.0
27/06:30pm 5.7 2.1 2.9 82 1.2 WSW 11 15 6 8 1019.8 1020.4 0.0
27/06:00pm 6.2 2.1 2.5 77 1.6 SW 13 19 7 10 1019.4 1020.0 0.0
27/05:30pm 6.4 1.9 2.1 74 1.8 SW 15 20 8 11 1019.1 1019.7 0.0
27/05:00pm 6.3 0.8 2.0 74 1.8 SW 20 32 11 17 1018.7 1019.2 0.0
27/04:30pm 6.4 1.6 2.7 77 1.6 SW 17 26 9 14 1018.3 1018.8 0.0
27/04:00pm 6.6 1.4 2.3 74 1.8 SW 19 28 10 15 1018.0 1018.5 0.0
27/03:30pm 6.7 1.4 3.0 77 1.6 SW 20 26 11 14 1017.6 1018.1 0.0
27/03:00pm 6.9 1.6 2.8 75 1.7 SW 20 28 11 15 1017.2 1017.8 0.0
27/02:30pm 6.9 0.7 2.2 72 2.0 SW 24 37 13 20 1017.0 1017.6 0.0
27/02:00pm 8.5 2.9 3.4 70 2.2 WSW 22 32 12 17 1016.8 1017.4 0.0
27/01:30pm 6.7 0.5 2.4 74 1.8 SW 24 37 13 20 1017.0 1017.6 0.0
27/01:00pm 6.2 1.5 3.4 82 1.2 SW 17 24 9 13 1017.0 1017.6 0.0
27/12:30pm 5.9 0.9 3.4 84 1.1 SW 19 32 10 17 1017.1 1017.7 0.0
27/12:00pm 6.3 1.8 4.1 86 1.0 SW 17 26 9 14 1017.2 1017.8 0.0
27/11:30am 6.0 0.8 3.7 85 1.0 SW 20 28 11 15 1017.6 1018.1 0.0
27/11:00am 5.7 0.6 3.9 88 0.8 SW 20 30 11 16 1017.9 1018.4 0.0
27/10:30am 5.7 1.1 3.7 87 0.9 SW 17 24 9 13 1017.9 1018.4 0.0
27/10:00am 5.6 1.8 3.9 89 0.7 SW 13 20 7 11 1017.8 1018.3 0.0
27/09:30am 5.2 0.6 3.5 89 0.7 WSW 17 22 9 12 1017.7 1018.2 0.0
27/09:00am 4.9 1.4 3.7 92 0.5 WSW 11 15 6 8 1017.5 1018.0 1.8
27/08:30am 4.4 1.3 3.4 93 0.4 SW 9 13 5 7 1017.3 1017.9 1.8
27/08:00am 4.0 0.5 3.3 95 0.3 SW 11 13 6 7 1017.2 1017.8 1.8
27/07:30am 3.7 0.4 2.7 93 0.4 SW 9 11 5 6 1016.9 1017.5 1.8
27/07:00am 3.7 0.8 2.8 94 0.4 SW 7 11 4 6 1016.8 1017.4 1.8
27/06:30am 3.7 0.9 3.0 95 0.3 SW 7 9 4 5 1016.5 1017.1 1.8
27/06:00am 3.7 0.5 2.8 94 0.4 SW 9 11 5 6 1016.1 1016.6 1.8
27/05:30am 4.1 2.7 3.7 97 0.2 CALM 0 0 0 0 1015.9 1016.4 1.8
27/05:00am 4.1 1.4 3.5 96 0.3 SW 7 9 4 5 1015.7 1016.2 1.6
27/04:30am 4.3 1.6 3.9 97 0.2 SW 7 9 4 5 1015.7 1016.2 1.2
27/04:00am 4.5 3.2 4.2 98 0.1 CALM 0 0 0 0 1015.8 1016.3 1.0
27/03:30am 4.6 3.3 4.3 98 0.1 CALM 0 0 0 0 1015.8 1016.3 0.8
27/03:00am 4.7 3.5 4.6 99 0.0 CALM 0 2 0 1 1015.9 1016.4 0.4
27/02:30am 4.7 3.1 4.6 99 0.0 NW 2 6 1 3 1016.1 1016.6 0.2
27/02:00am 4.6 3.4 4.5 99 0.0 CALM 0 0 0 0 1016.2 1016.7 0.2
27/01:30am 4.6 3.4 4.5 99 0.0 CALM 0 0 0 0 1016.3 1016.8 0.2
27/01:00am 4.7 3.5 4.6 99 0.0 CALM 0 0 0 0 1016.3 1016.8 0.2
27/12:30am 4.7 3.5 4.6 99 0.0 CALM 0 0 0 0 1016.3 1016.8 0.2
27/12:00am 4.5 2.1 4.4 99 0.0 NW 6 7 3 4 1016.3 1016.8 0.2
 
Date/Time
EST
Temp
°C
App
Temp
°C
Dew
Point
°C
Rel
Hum
%
Delta-T
°C
Wind Press
QNH
hPa
Press
MSL
hPa
Rain since
9am
mm
Dir  Spd
km/h
Gust
km/h
Spd
kts
Gust
kts
26/11:30pm 4.6 2.1 4.5 99 0.0 N 7 9 4 5 1016.5 1017.1 0.2
26/11:00pm 4.6 2.1 4.5 99 0.0 NNW 7 9 4 5 1016.8 1017.4 0.2
26/10:30pm 4.3 2.6 4.2 99 0.0 W 2 7 1 4 1016.4 1016.9 0.2
26/10:00pm 4.2 2.9 4.1 99 0.0 CALM 0 0 0 0 1016.2 1016.7 0.2
26/09:30pm 4.3 3.0 4.2 99 0.0 CALM 0 0 0 0 1016.3 1016.8 0.2
26/09:00pm 4.3 1.7 4.2 99 0.0 N 7 9 4 5 1016.7 1017.3 0.2
26/08:30pm 4.3 1.8 4.0 98 0.1 NNW 6 7 3 4 1017.0 1017.6 0.2
26/08:00pm 4.2 2.8 3.6 96 0.3 CALM 0 0 0 0 1017.0 1017.6 0.2
26/07:30pm 4.9 3.6 4.0 94 0.4 CALM 0 0 0 0 1017.2 1017.8 0.2
26/07:00pm 5.3 4.0 4.3 93 0.4 CALM 0 0 0 0 1017.5 1018.0 0.2

Other Formats:

Comma delimited format used in spreadsheet applications
http://www.bom.gov.au/fwo/IDN60801/IDN60801.94712.axf

JavaScript Object Notation format (JSON) in row-major order
http://www.bom.gov.au/fwo/IDN60801/IDN60801.94712.json